KTEX/TEX METAR and TAF weather

Enter ICAO airport designator
Station Type Date Time Source
KTEX METAR 2020/01/20 21:55 UTC NOAA

KTEX 202155Z AUTO 28005KT 10SM BKN100 BKN120 04/M14 A3035 RMK AO2


Station Type Date Time Source
KTEX Decoded METAR 2020/01/20 21:55 UTC NOAA

Telluride, Telluride Regional Airport, CO, United States (KTEX) 37-57-14N 107-54-31W
Jan 20, 2020 - 04:55 PM EST / 2020.01.20 2155 UTC
Wind: from the W (280 degrees) at 6 MPH (5 KT):0
Visibility: 10 mile(s):0
Sky conditions: mostly cloudy
Temperature: 39 F (4 C)
Dew Point: 6 F (-14 C)
Relative Humidity: 25%
Pressure (altimeter): 30.35 in. Hg (1027 hPa)
ob: KTEX 202155Z AUTO 28005KT 10SM BKN100 BKN120 04/M14 A3035 RMK AO2
cycle: 22

Station Type Date Time Source
KTEX TAF 2020/01/20 18:36 UTC NOAA

TAF KTEX 201735Z 2018/2118 VRB03KT P6SM SCT120 BKN200
FM201900 25005KT P6SM SCT070 OVC150
FM210100 15008KT P6SM BKN060 OVC090
FM211000 16007KT 2SM -SN BR SCT025 OVC040
FM211200 VRB03KT 2SM -SN BR SCT011 OVC015
FM211600 12002KT 1 1/2SM -SN BR SCT007 OVC015

Example: see airport list